East Amwell Township, New Jersey
Current Conditions -  °F | °C
As of 3:53 PM on Thursday 18 Dec 2014 (Local Time) from KTTN Reporting Station
Scattered Clouds Scattered Clouds  
Wind Chill: 29°   Ceiling: Unl
Heat Index: 38°   Visibility: 10mi
Dew Point: 23°   Wind: 16mph
Humidity: 55%   Direction: 300°WNW
Pressure: 29.99"   Gusts: 22mph
Location:  40.4412°N, 74.8354°W
Report Text: KTTN 182053Z 30014G19KT 10SM SCT038 03/M05 A2999 RMK AO2 SLP152 T00331050 55002
Loading
Personal Weather Stations






























Interactive Weather Map New forecast layout! Learn more

10-Day Weather Forecast

Advertisements
Track Severe Weather on mobile